createdAt,value
2022-12-26T00:01:53.719Z,62.82
2022-12-26T00:04:51.927Z,62.67
2022-12-26T00:07:11.208Z,62.90
2022-12-26T00:09:39.526Z,63.07
2022-12-26T00:12:08.014Z,63.30
2022-12-26T00:14:36.328Z,63.43
2022-12-26T00:17:04.792Z,63.61
2022-12-26T00:19:33.092Z,63.62
2022-12-26T00:22:01.417Z,63.67
2022-12-26T00:24:29.917Z,63.92
2022-12-26T00:26:58.250Z,63.84
2022-12-26T00:29:26.707Z,64.01
2022-12-26T00:31:55.364Z,64.14
2022-12-26T00:34:23.851Z,64.16
2022-12-26T00:36:52.167Z,64.17
2022-12-26T00:39:20.573Z,64.14
2022-12-26T00:41:49.049Z,64.19
2022-12-26T00:44:17.387Z,64.30
2022-12-26T00:46:45.830Z,64.52
2022-12-26T00:49:14.246Z,64.74
2022-12-26T00:51:42.571Z,64.96
2022-12-26T00:54:10.990Z,65.02
2022-12-26T00:56:39.373Z,65.27
2022-12-26T00:59:07.825Z,65.28
2022-12-26T01:01:36.560Z,65.55
2022-12-26T01:04:05.916Z,65.42
2022-12-26T01:06:34.410Z,65.76
2022-12-26T01:09:02.895Z,65.78
2022-12-26T01:11:43.297Z,66.17
2022-12-26T01:14:17.986Z,66.13
2022-12-26T01:16:48.403Z,66.25
2022-12-26T01:19:16.817Z,66.46
2022-12-26T01:21:45.177Z,66.50
2022-12-26T01:24:14.697Z,66.55
2022-12-26T01:26:43.159Z,66.76
2022-12-26T01:29:11.619Z,66.82
2022-12-26T01:31:40.119Z,66.79
2022-12-26T01:34:08.453Z,66.86
2022-12-26T01:36:36.810Z,67.12
2022-12-26T01:39:05.295Z,67.51
2022-12-26T01:41:34.131Z,67.51
2022-12-26T01:44:39.555Z,67.31
2022-12-26T01:47:08.624Z,67.60
2022-12-26T01:49:42.710Z,67.54
2022-12-26T01:52:16.965Z,67.73
2022-12-26T01:54:49.759Z,68.06
2022-12-26T01:57:26.731Z,68.09
2022-12-26T01:59:57.305Z,67.78
2022-12-26T02:02:28.780Z,67.88
2022-12-26T02:05:17.307Z,67.99
2022-12-26T02:07:47.511Z,68.08
2022-12-26T02:10:22.616Z,68.22
2022-12-26T02:12:51.790Z,68.31
2022-12-26T02:15:20.637Z,68.43
2022-12-26T02:17:49.101Z,68.51
2022-12-26T02:20:35.029Z,68.61
2022-12-26T02:23:21.440Z,68.30
2022-12-26T02:26:16.015Z,68.49
2022-12-26T02:29:11.407Z,68.68
2022-12-26T02:31:39.329Z,68.62
2022-12-26T02:34:37.109Z,68.23
2022-12-26T02:37:37.109Z,68.67
2022-12-26T02:40:23.690Z,68.56
2022-12-26T02:43:30.884Z,68.65
2022-12-26T02:46:50.148Z,69.16
2022-12-26T02:50:20.262Z,68.94
2022-12-26T02:53:58.005Z,68.91
2022-12-26T02:56:58.184Z,69.01
2022-12-26T03:00:04.280Z,69.10
2022-12-26T03:03:00.716Z,69.51
2022-12-26T03:06:17.604Z,69.01
2022-12-26T03:09:30.598Z,69.44
2022-12-26T03:12:22.893Z,69.36
2022-12-26T03:15:04.824Z,69.49
2022-12-26T03:17:44.181Z,69.69
2022-12-26T03:20:21.708Z,69.38
2022-12-26T03:22:56.448Z,69.56
2022-12-26T03:26:05.257Z,69.75
2022-12-26T03:28:33.732Z,70.17
2022-12-26T03:31:05.866Z,70.17
2022-12-26T03:33:54.875Z,70.06
2022-12-26T03:36:57.663Z,70.11
2022-12-26T03:40:24.244Z,70.33
2022-12-26T03:43:44.184Z,70.37
2022-12-26T03:46:33.935Z,70.37
2022-12-26T03:49:28.169Z,70.26
2022-12-26T03:52:46.365Z,70.66
2022-12-26T03:55:58.405Z,70.41
2022-12-26T03:59:00.118Z,70.34
2022-12-26T04:01:51.734Z,70.68
2022-12-26T04:04:42.033Z,70.74
2022-12-26T04:07:33.930Z,71.04
2022-12-26T04:10:30.748Z,70.71
2022-12-26T04:13:20.804Z,71.30
2022-12-26T04:16:25.215Z,71.15
2022-12-26T04:19:38.407Z,70.84
2022-12-26T04:22:37.602Z,70.83
2022-12-26T04:25:49.418Z,70.68
2022-12-26T04:28:40.482Z,71.03
2022-12-26T04:31:49.292Z,71.23
2022-12-26T04:35:00.502Z,71.21
2022-12-26T04:37:48.429Z,70.92
2022-12-26T04:40:43.349Z,71.01
2022-12-26T04:43:49.125Z,70.61
2022-12-26T04:46:25.269Z,70.85
2022-12-26T04:49:13.642Z,71.04
2022-12-26T04:51:42.007Z,71.00
2022-12-26T04:54:10.565Z,71.37
2022-12-26T04:56:39.127Z,71.58
2022-12-26T04:59:07.492Z,71.31
2022-12-26T05:01:54.127Z,70.98
2022-12-26T05:04:41.024Z,71.15
2022-12-26T05:07:36.171Z,71.52
2022-12-26T05:10:05.928Z,71.51
2022-12-26T05:12:34.248Z,71.32
2022-12-26T05:15:02.684Z,71.91
2022-12-26T05:17:49.452Z,71.52
2022-12-26T05:20:35.967Z,71.92
2022-12-26T05:23:23.365Z,71.68
2022-12-26T05:26:10.213Z,71.57
2022-12-26T05:28:44.584Z,71.74
2022-12-26T05:31:18.770Z,71.81
2022-12-26T05:34:05.907Z,72.10
2022-12-26T05:36:52.644Z,72.03
2022-12-26T05:39:21.239Z,71.68
2022-12-26T05:41:50.095Z,71.82
2022-12-26T05:44:18.731Z,71.81
2022-12-26T05:46:47.761Z,71.91
2022-12-26T05:49:16.169Z,71.97
2022-12-26T05:51:44.617Z,72.08
2022-12-26T05:54:12.985Z,71.86
2022-12-26T05:56:47.479Z,71.94
2022-12-26T05:59:17.735Z,72.34
2022-12-26T06:01:46.238Z,72.07
2022-12-26T06:04:14.846Z,72.22
2022-12-26T06:06:43.209Z,72.20
2022-12-26T06:09:11.675Z,72.32
2022-12-26T06:11:45.261Z,72.01
2022-12-26T06:14:17.296Z,72.06
2022-12-26T06:16:45.629Z,72.22
2022-12-26T06:19:14.011Z,72.32
2022-12-26T06:21:42.399Z,72.40
2022-12-26T06:24:10.802Z,72.75
2022-12-26T06:26:39.045Z,72.86
2022-12-26T06:29:07.415Z,72.92
2022-12-26T06:31:35.863Z,72.55
2022-12-26T06:34:04.336Z,72.68
2022-12-26T06:36:32.728Z,72.53
2022-12-26T06:39:02.089Z,72.95
2022-12-26T06:41:30.451Z,72.88
2022-12-26T06:43:59.205Z,72.89
2022-12-26T06:46:28.662Z,72.94
2022-12-26T06:48:57.043Z,73.10
2022-12-26T06:51:29.341Z,73.09
2022-12-26T06:53:57.721Z,73.19
2022-12-26T06:56:28.292Z,72.90
2022-12-26T06:58:57.895Z,73.22
2022-12-26T07:01:27.810Z,73.26
2022-12-26T07:03:57.304Z,73.31
2022-12-26T07:06:31.223Z,73.31
2022-12-26T07:09:02.577Z,73.39
2022-12-26T07:11:33.818Z,73.38
2022-12-26T07:14:02.583Z,73.19
2022-12-26T07:16:31.385Z,73.17
2022-12-26T07:19:00.171Z,73.54
2022-12-26T07:21:33.434Z,73.79
2022-12-26T07:24:04.904Z,73.56
2022-12-26T07:26:33.456Z,73.71
2022-12-26T07:29:01.797Z,73.55
2022-12-26T07:31:31.156Z,73.68
2022-12-26T07:33:59.622Z,73.68
2022-12-26T07:36:28.169Z,73.87
2022-12-26T07:38:56.926Z,74.04
2022-12-26T07:41:43.931Z,73.93
2022-12-26T07:44:12.480Z,73.82
2022-12-26T07:46:41.182Z,73.88
2022-12-26T07:49:09.759Z,74.17
2022-12-26T07:51:38.192Z,73.75
2022-12-26T07:54:11.152Z,73.74
2022-12-26T07:56:40.641Z,73.95
2022-12-26T07:59:13.465Z,73.96
2022-12-26T08:01:41.831Z,74.23
2022-12-26T08:04:13.705Z,73.90
2022-12-26T08:06:42.248Z,74.35
2022-12-26T08:09:16.817Z,74.20
2022-12-26T08:11:45.220Z,73.94
2022-12-26T08:14:14.812Z,73.95
2022-12-26T08:16:47.938Z,74.02
2022-12-26T08:19:19.538Z,74.40
2022-12-26T08:21:47.848Z,74.10
2022-12-26T08:24:16.880Z,74.14
2022-12-26T08:26:45.252Z,74.01
2022-12-26T08:29:13.609Z,74.14
2022-12-26T08:31:42.070Z,74.31
2022-12-26T08:34:11.039Z,74.08
2022-12-26T08:36:40.455Z,74.18
2022-12-26T08:39:10.078Z,74.33
2022-12-26T08:41:38.408Z,73.99
2022-12-26T08:46:55.144Z,74.19
2022-12-26T08:49:23.669Z,74.29
2022-12-26T08:51:52.109Z,74.61
2022-12-26T08:54:20.492Z,74.44
2022-12-26T08:56:48.970Z,74.68
2022-12-26T08:59:17.368Z,74.53
2022-12-26T09:01:45.976Z,74.47
2022-12-26T09:04:14.709Z,74.24
2022-12-26T09:06:43.462Z,74.29
2022-12-26T09:09:13.687Z,74.78
2022-12-26T09:11:43.371Z,74.41
2022-12-26T09:14:12.311Z,74.35
2022-12-26T09:16:50.807Z,74.84
2022-12-26T09:19:20.323Z,74.49
2022-12-26T09:21:50.265Z,74.53
2022-12-26T09:24:20.004Z,75.02
2022-12-26T09:26:50.549Z,74.94
2022-12-26T09:29:18.892Z,75.25
2022-12-26T09:31:47.327Z,75.05
2022-12-26T09:34:15.623Z,75.53
2022-12-26T09:36:43.985Z,75.31
2022-12-26T09:39:13.439Z,75.18
2022-12-26T09:41:48.487Z,75.19
2022-12-26T09:44:43.969Z,75.02
2022-12-26T09:47:36.052Z,75.28
2022-12-26T09:50:20.471Z,75.33
2022-12-26T09:52:59.211Z,75.10
2022-12-26T09:55:54.562Z,75.12
2022-12-26T09:58:27.057Z,75.42
2022-12-26T10:01:07.095Z,75.06
2022-12-26T10:03:44.798Z,75.20
2022-12-26T10:06:23.498Z,75.19
2022-12-26T10:09:16.152Z,75.77
2022-12-26T10:12:03.284Z,75.70
2022-12-26T10:14:58.884Z,75.50
2022-12-26T10:17:35.370Z,75.80
2022-12-26T10:20:27.839Z,75.71
2022-12-26T10:23:14.229Z,75.60
2022-12-26T10:25:51.189Z,75.56
2022-12-26T10:28:47.025Z,75.44
2022-12-26T10:31:36.486Z,75.51
2022-12-26T10:34:22.896Z,75.82
2022-12-26T10:37:11.686Z,75.97
2022-12-26T10:39:58.035Z,75.63
2022-12-26T10:42:32.971Z,75.79
2022-12-26T10:45:02.387Z,75.79
2022-12-26T10:47:49.773Z,75.78
2022-12-26T10:50:35.879Z,75.89
2022-12-26T10:53:08.270Z,76.13
2022-12-26T10:55:37.284Z,76.06
2022-12-26T10:58:17.415Z,76.04
2022-12-26T11:00:45.920Z,76.16
2022-12-26T11:03:18.238Z,75.93
2022-12-26T11:06:11.170Z,75.92
2022-12-26T11:08:51.352Z,75.95
2022-12-26T11:11:19.712Z,75.94
2022-12-26T11:14:02.991Z,76.14
2022-12-26T11:16:42.209Z,76.04
2022-12-26T11:19:35.056Z,75.99
2022-12-26T11:22:24.975Z,75.70
2022-12-26T11:25:14.390Z,76.08
2022-12-26T11:27:46.191Z,75.96
2022-12-26T11:30:31.585Z,75.97
2022-12-26T11:33:34.903Z,76.15
2022-12-26T11:36:18.670Z,76.09
2022-12-26T11:38:52.959Z,76.07
2022-12-26T11:41:43.359Z,76.29
2022-12-26T11:44:28.811Z,76.24
2022-12-26T11:47:15.393Z,76.34
2022-12-26T11:50:07.151Z,76.19
2022-12-26T11:52:38.402Z,76.06
2022-12-26T11:55:28.172Z,76.36
2022-12-26T11:58:21.443Z,76.36
2022-12-26T12:00:53.329Z,76.40
2022-12-26T12:03:48.959Z,76.44
2022-12-26T12:06:23.684Z,76.55
2022-12-26T12:09:30.672Z,76.34
2022-12-26T12:12:25.508Z,76.13
2022-12-26T12:15:04.340Z,76.23
2022-12-26T12:17:54.855Z,76.24
2022-12-26T12:20:33.016Z,76.32
2022-12-26T12:23:25.090Z,76.16
2022-12-26T12:26:05.766Z,76.29
2022-12-26T12:29:02.977Z,76.24
2022-12-26T12:32:03.083Z,76.45
2022-12-26T12:35:01.443Z,76.60
2022-12-26T12:37:29.789Z,76.78
2022-12-26T12:40:22.206Z,76.44
2022-12-26T12:43:29.885Z,76.47
2022-12-26T12:46:12.210Z,76.44
2022-12-26T12:49:08.354Z,76.24
2022-12-26T12:51:42.592Z,76.35
2022-12-26T12:54:19.328Z,76.42
2022-12-26T12:57:05.729Z,76.52
2022-12-26T13:00:04.682Z,76.68
2022-12-26T13:02:41.937Z,76.75
2022-12-26T13:05:40.471Z,76.64
2022-12-26T13:08:21.255Z,76.71
2022-12-26T13:10:57.149Z,76.63
2022-12-26T13:13:37.320Z,76.57
2022-12-26T13:16:27.190Z,76.30
2022-12-26T13:19:03.089Z,76.82
2022-12-26T13:21:37.328Z,76.70
2022-12-26T13:24:26.602Z,76.65
2022-12-26T13:27:07.234Z,76.41
2022-12-26T13:29:44.419Z,76.81
2022-12-26T13:32:21.779Z,76.69
2022-12-26T13:34:52.685Z,76.30
2022-12-26T13:37:39.089Z,76.75
2022-12-26T13:40:30.282Z,76.64
2022-12-26T13:43:36.510Z,76.39
2022-12-26T13:46:04.954Z,76.46
2022-12-26T13:48:33.709Z,76.78
2022-12-26T13:51:05.165Z,77.03
2022-12-26T13:53:38.276Z,77.01
2022-12-26T13:56:19.514Z,76.95
2022-12-26T13:59:31.739Z,77.09
2022-12-26T14:02:20.002Z,76.80
2022-12-26T14:05:23.363Z,76.81
2022-12-26T14:08:24.029Z,76.91
2022-12-26T14:11:30.664Z,76.67
2022-12-26T14:14:23.469Z,76.93
2022-12-26T14:17:26.780Z,76.85
2022-12-26T14:20:13.424Z,76.71
2022-12-26T14:22:44.686Z,76.96
2022-12-26T14:25:57.309Z,77.19
2022-12-26T14:28:59.819Z,77.13
2022-12-26T14:31:57.633Z,77.18
2022-12-26T14:35:02.435Z,76.94
2022-12-26T14:37:49.280Z,76.72
2022-12-26T14:40:36.883Z,76.91
2022-12-26T14:43:23.129Z,76.96
2022-12-26T14:45:53.215Z,77.04
2022-12-26T14:48:24.670Z,76.93
2022-12-26T14:50:56.346Z,77.25
2022-12-26T14:53:30.369Z,77.28
2022-12-26T14:56:03.240Z,77.29
2022-12-26T14:58:47.879Z,77.21
2022-12-26T15:01:21.857Z,76.94
2022-12-26T15:04:20.308Z,77.02
2022-12-26T15:06:54.453Z,76.80
2022-12-26T15:09:43.834Z,77.14
2022-12-26T15:12:23.889Z,76.95
2022-12-26T15:15:13.249Z,77.04
2022-12-26T15:18:10.720Z,77.30
2022-12-26T15:21:05.024Z,77.21
2022-12-26T15:23:57.318Z,77.38
2022-12-26T15:26:56.129Z,77.30
2022-12-26T15:29:42.711Z,76.81
2022-12-26T15:32:16.828Z,76.99
2022-12-26T15:35:14.433Z,77.12
2022-12-26T15:38:09.956Z,77.46
2022-12-26T15:40:45.761Z,77.39
2022-12-26T15:43:46.907Z,77.54
2022-12-26T15:46:34.442Z,77.13
2022-12-26T15:49:11.968Z,77.10
2022-12-26T15:51:56.376Z,77.20
2022-12-26T15:54:30.436Z,77.58
2022-12-26T15:57:20.709Z,77.54
2022-12-26T16:00:23.065Z,77.48
2022-12-26T16:03:25.204Z,77.65
2022-12-26T16:06:07.031Z,77.51
2022-12-26T16:08:57.303Z,77.54
2022-12-26T16:11:44.128Z,77.13
2022-12-26T16:14:33.815Z,77.35
2022-12-26T16:17:14.971Z,77.61
2022-12-26T16:19:46.168Z,77.53
2022-12-26T16:22:47.661Z,77.41
2022-12-26T16:25:18.248Z,77.29
2022-12-26T16:27:48.355Z,77.36
2022-12-26T16:30:23.829Z,77.54
2022-12-26T16:32:53.701Z,77.44
2022-12-26T16:35:33.313Z,77.15
2022-12-26T16:38:05.149Z,77.19
2022-12-26T16:40:45.476Z,77.36
2022-12-26T16:43:20.045Z,77.50
2022-12-26T16:45:53.146Z,77.41
2022-12-26T16:48:25.429Z,77.21
2022-12-26T16:51:04.683Z,77.32
2022-12-26T16:53:41.599Z,77.25
2022-12-26T16:56:35.717Z,77.63
2022-12-26T16:59:17.830Z,77.15
2022-12-26T17:01:55.234Z,77.04
2022-12-26T17:04:26.588Z,77.35
2022-12-26T17:06:57.799Z,77.37
2022-12-26T17:09:30.238Z,77.14
2022-12-26T17:12:00.827Z,77.42
2022-12-26T17:14:44.190Z,77.24
2022-12-26T17:17:30.628Z,77.20
2022-12-26T17:20:20.175Z,77.21
2022-12-26T17:22:49.155Z,76.67
2022-12-26T17:25:21.491Z,76.98
2022-12-26T17:28:09.729Z,76.83
2022-12-26T17:30:43.497Z,76.77
2022-12-26T17:33:14.073Z,77.00
2022-12-26T17:36:38.362Z,76.73
2022-12-26T17:38:35.400Z,76.85
2022-12-26T17:41:06.263Z,76.32
2022-12-26T17:43:38.284Z,76.57
2022-12-26T17:46:10.156Z,76.44
2022-12-26T17:48:38.540Z,76.38
2022-12-26T17:51:09.794Z,76.03
2022-12-26T17:53:41.944Z,76.09
2022-12-26T17:56:21.788Z,75.82
2022-12-26T17:58:51.075Z,75.56
2022-12-26T18:01:21.858Z,75.23
2022-12-26T18:03:53.795Z,74.98
2022-12-26T18:06:24.515Z,74.96
2022-12-26T18:08:52.975Z,75.06
2022-12-26T18:11:21.343Z,74.94
2022-12-26T18:13:49.633Z,75.10
2022-12-26T18:16:20.662Z,75.39
2022-12-26T18:18:49.766Z,75.13
2022-12-26T18:21:18.415Z,74.22
2022-12-26T18:23:46.902Z,74.66
2022-12-26T18:26:28.985Z,75.12
2022-12-26T18:28:57.798Z,74.53
2022-12-26T18:31:27.583Z,74.58
2022-12-26T18:33:59.076Z,74.57
2022-12-26T18:36:39.560Z,74.71
2022-12-26T18:39:08.202Z,74.16
2022-12-26T18:41:37.104Z,74.57
2022-12-26T18:44:05.648Z,74.37
2022-12-26T18:46:36.413Z,74.51
2022-12-26T18:49:04.868Z,74.37
2022-12-26T18:51:33.258Z,74.64
2022-12-26T18:54:01.578Z,74.24
2022-12-26T18:56:29.812Z,74.36
2022-12-26T18:58:58.389Z,74.19
2022-12-26T19:01:27.531Z,74.24
2022-12-26T19:03:56.375Z,74.27
2022-12-26T19:06:27.933Z,74.15
2022-12-26T19:08:57.371Z,74.16
2022-12-26T19:11:26.073Z,74.25
2022-12-26T19:13:54.569Z,73.68
2022-12-26T19:16:23.969Z,73.79
2022-12-26T19:18:52.727Z,73.69
2022-12-26T19:21:21.064Z,73.68
2022-12-26T19:23:49.480Z,73.60
2022-12-26T19:26:19.543Z,73.17
2022-12-26T19:28:53.467Z,72.94
2022-12-26T19:31:22.744Z,72.82
2022-12-26T19:33:51.593Z,72.73
2022-12-26T19:36:19.943Z,72.54
2022-12-26T19:38:48.261Z,72.31
2022-12-26T19:41:16.813Z,72.42
2022-12-26T19:43:45.109Z,72.18
2022-12-26T19:46:18.252Z,72.01
2022-12-26T19:48:46.609Z,71.73
2022-12-26T19:51:16.841Z,72.23
2022-12-26T19:53:46.485Z,72.07
2022-12-26T19:56:19.867Z,71.75
2022-12-26T19:58:54.522Z,72.49
2022-12-26T20:01:31.205Z,71.97
2022-12-26T20:04:02.613Z,71.88
2022-12-26T20:06:32.996Z,71.94
2022-12-26T20:09:05.476Z,71.64
2022-12-26T20:11:41.428Z,72.13
2022-12-26T20:14:13.949Z,72.06
2022-12-26T20:19:31.078Z,71.72
2022-12-26T20:21:59.464Z,71.87
2022-12-26T20:24:27.902Z,71.88
2022-12-26T20:26:56.360Z,72.47
2022-12-26T20:29:24.779Z,71.97
2022-12-26T20:31:56.033Z,71.81
2022-12-26T20:34:24.789Z,72.00
2022-12-26T20:36:53.151Z,72.36
2022-12-26T20:39:22.112Z,71.80
2022-12-26T20:41:50.608Z,72.26
2022-12-26T20:44:20.305Z,72.49
2022-12-26T20:46:48.795Z,71.90
2022-12-26T20:49:17.599Z,72.11
2022-12-26T20:51:46.860Z,71.99
2022-12-26T20:54:16.996Z,72.13
2022-12-26T20:56:46.922Z,71.71
2022-12-26T20:59:15.234Z,71.67
2022-12-26T21:01:43.822Z,71.55
2022-12-26T21:04:19.170Z,71.72
2022-12-26T21:06:48.355Z,71.50
2022-12-26T21:09:17.377Z,71.47
2022-12-26T21:11:46.462Z,71.41
2022-12-26T21:14:18.100Z,71.07
2022-12-26T21:16:53.347Z,70.90
2022-12-26T21:19:24.009Z,71.34
2022-12-26T21:21:55.394Z,71.42
2022-12-26T21:24:30.090Z,70.94
2022-12-26T21:26:58.255Z,71.06
2022-12-26T21:29:32.804Z,71.33
2022-12-26T21:32:01.549Z,70.81
2022-12-26T21:34:32.515Z,71.18
2022-12-26T21:37:19.833Z,70.55
2022-12-26T21:39:48.667Z,70.68
2022-12-26T21:42:17.482Z,70.55
2022-12-26T21:44:45.874Z,70.81
2022-12-26T21:47:14.386Z,70.78
2022-12-26T21:49:42.752Z,70.63
2022-12-26T21:52:12.035Z,70.49
2022-12-26T21:54:58.608Z,70.44
2022-12-26T21:57:27.049Z,70.29
2022-12-26T21:59:58.904Z,70.33
2022-12-26T22:02:54.476Z,70.21
2022-12-26T22:05:26.119Z,69.83
2022-12-26T22:08:00.431Z,69.84
2022-12-26T22:10:51.489Z,69.96
2022-12-26T22:13:21.790Z,69.95
2022-12-26T22:16:05.121Z,69.76
2022-12-26T22:18:48.434Z,69.64
2022-12-26T22:21:19.553Z,69.61
2022-12-26T22:23:51.396Z,69.71
2022-12-26T22:26:22.097Z,69.73
2022-12-26T22:28:51.449Z,69.63
2022-12-26T22:31:34.418Z,69.67
2022-12-26T22:34:08.458Z,69.65
2022-12-26T22:36:37.293Z,69.67
2022-12-26T22:39:05.963Z,69.53
2022-12-26T22:41:34.979Z,69.53
2022-12-26T22:44:03.718Z,69.48
2022-12-26T22:46:32.018Z,69.29
2022-12-26T22:49:00.362Z,69.01
2022-12-26T22:51:28.833Z,69.09
2022-12-26T22:53:59.411Z,68.91
2022-12-26T22:56:29.001Z,68.98
2022-12-26T22:59:01.335Z,68.92
2022-12-26T23:01:30.381Z,68.79
2022-12-26T23:04:00.999Z,68.59
2022-12-26T23:06:35.878Z,68.64
2022-12-26T23:09:07.876Z,68.88
2022-12-26T23:11:36.807Z,68.86
2022-12-26T23:14:07.331Z,69.21
2022-12-26T23:16:46.434Z,69.16
2022-12-26T23:19:42.115Z,68.84
2022-12-26T23:22:11.407Z,68.96
2022-12-26T23:24:39.738Z,68.99
2022-12-26T23:27:28.198Z,68.81
2022-12-26T23:30:15.080Z,69.16
2022-12-26T23:32:45.407Z,69.01
2022-12-26T23:35:14.427Z,68.84
2022-12-26T23:37:43.078Z,68.83
2022-12-26T23:40:14.202Z,69.27
2022-12-26T23:42:43.024Z,69.08
2022-12-26T23:45:13.632Z,69.18
2022-12-26T23:47:43.827Z,69.28
2022-12-26T23:50:14.553Z,69.28
2022-12-26T23:52:44.032Z,69.63
2022-12-26T23:55:13.306Z,69.63
2022-12-26T23:57:41.762Z,69.76
